Terminal Aerodrome Forecast
Issued by NWS Boise, ID

Home | Current Version | Previous Version | Text Only | Print | Product List | Glossary On
Versions: 1 2 3 4 5 6 7 8 9 10 11 12 13 14 15 16 17 18 19 20 21 22 23 24 25 26 27 28 29 30 31 32 33 34 35 36 37
000
FTUS45 KBOI 180951 AAC
TAFBNO
TAF AMD
KBNO 180951Z 1810/1906 VRB06KT 5SM -FZRASN BR OVC040
     FM181600 07008KT 4SM -FZRAPL BR OVC030
     FM181800 07008KT 1SM -SN BR OVC012=

USA.gov is the U.S. government's official web portal to all federal, state and local government web resources and services.